sensor_id;sensor_type;location;lat;lon;timestamp;P1;durP1;ratioP1;P2;durP2;ratioP2
42244;SDS011;27912;51.828;5.688;2023-11-19T00:01:47;13.93;;;12.35;;
42244;SDS011;27912;51.828;5.688;2023-11-19T00:04:13;15.50;;;12.13;;
42244;SDS011;27912;51.828;5.688;2023-11-19T00:06:38;14.52;;;12.20;;
42244;SDS011;27912;51.828;5.688;2023-11-19T00:09:04;18.23;;;11.13;;
42244;SDS011;27912;51.828;5.688;2023-11-19T00:11:29;16.83;;;10.88;;
42244;SDS011;27912;51.828;5.688;2023-11-19T00:13:55;15.27;;;9.68;;
42244;SDS011;27912;51.828;5.688;2023-11-19T00:16:20;11.68;;;8.82;;
42244;SDS011;27912;51.828;5.688;2023-11-19T00:18:46;11.90;;;8.32;;
42244;SDS011;27912;51.828;5.688;2023-11-19T00:21:12;16.00;;;8.77;;
42244;SDS011;27912;51.828;5.688;2023-11-19T00:23:37;14.00;;;7.72;;
42244;SDS011;27912;51.828;5.688;2023-11-19T00:26:03;11.60;;;8.05;;
42244;SDS011;27912;51.828;5.688;2023-11-19T00:28:31;14.43;;;7.45;;
42244;SDS011;27912;51.828;5.688;2023-11-19T00:30:58;14.82;;;7.60;;
42244;SDS011;27912;51.828;5.688;2023-11-19T00:33:23;14.80;;;8.02;;
42244;SDS011;27912;51.828;5.688;2023-11-19T00:35:49;19.45;;;8.32;;
42244;SDS011;27912;51.828;5.688;2023-11-19T00:38:15;14.57;;;8.60;;
42244;SDS011;27912;51.828;5.688;2023-11-19T00:40:41;20.33;;;8.38;;
42244;SDS011;27912;51.828;5.688;2023-11-19T00:43:06;15.30;;;7.50;;
42244;SDS011;27912;51.828;5.688;2023-11-19T00:45:32;14.80;;;6.22;;
42244;SDS011;27912;51.828;5.688;2023-11-19T00:47:58;14.02;;;5.60;;
42244;SDS011;27912;51.828;5.688;2023-11-19T00:50:24;16.92;;;5.53;;
42244;SDS011;27912;51.828;5.688;2023-11-19T00:52:50;10.18;;;5.28;;
42244;SDS011;27912;51.828;5.688;2023-11-19T00:55:16;13.48;;;5.05;;
42244;SDS011;27912;51.828;5.688;2023-11-19T00:57:42;19.73;;;5.85;;
42244;SDS011;27912;51.828;5.688;2023-11-19T01:00:08;15.63;;;4.82;;
42244;SDS011;27912;51.828;5.688;2023-11-19T01:02:43;16.23;;;5.93;;
42244;SDS011;27912;51.828;5.688;2023-11-19T01:05:10;17.38;;;5.43;;
42244;SDS011;27912;51.828;5.688;2023-11-19T01:07:39;15.90;;;5.32;;
42244;SDS011;27912;51.828;5.688;2023-11-19T01:10:05;16.13;;;4.47;;
42244;SDS011;27912;51.828;5.688;2023-11-19T01:12:31;21.75;;;5.20;;
42244;SDS011;27912;51.828;5.688;2023-11-19T01:14:56;18.15;;;4.38;;
42244;SDS011;27912;51.828;5.688;2023-11-19T01:17:23;18.75;;;4.95;;
42244;SDS011;27912;51.828;5.688;2023-11-19T01:19:49;15.57;;;4.28;;
42244;SDS011;27912;51.828;5.688;2023-11-19T01:22:15;16.80;;;4.80;;
42244;SDS011;27912;51.828;5.688;2023-11-19T01:24:40;15.55;;;4.53;;
42244;SDS011;27912;51.828;5.688;2023-11-19T01:27:06;16.08;;;4.10;;
42244;SDS011;27912;51.828;5.688;2023-11-19T01:29:31;22.83;;;4.10;;
42244;SDS011;27912;51.828;5.688;2023-11-19T01:31:58;21.33;;;4.70;;
42244;SDS011;27912;51.828;5.688;2023-11-19T01:34:23;17.20;;;4.13;;
42244;SDS011;27912;51.828;5.688;2023-11-19T01:36:48;20.50;;;3.22;;
42244;SDS011;27912;51.828;5.688;2023-11-19T01:39:14;24.30;;;4.30;;
42244;SDS011;27912;51.828;5.688;2023-11-19T01:41:44;22.63;;;4.05;;
42244;SDS011;27912;51.828;5.688;2023-11-19T01:44:10;22.38;;;3.75;;
42244;SDS011;27912;51.828;5.688;2023-11-19T01:46:40;14.27;;;2.78;;
42244;SDS011;27912;51.828;5.688;2023-11-19T01:49:07;22.48;;;2.95;;
42244;SDS011;27912;51.828;5.688;2023-11-19T01:51:33;15.70;;;2.67;;
42244;SDS011;27912;51.828;5.688;2023-11-19T01:53:59;20.38;;;2.53;;
42244;SDS011;27912;51.828;5.688;2023-11-19T01:56:26;19.23;;;2.17;;
42244;SDS011;27912;51.828;5.688;2023-11-19T01:58:52;22.85;;;3.08;;
42244;SDS011;27912;51.828;5.688;2023-11-19T02:01:20;17.73;;;3.05;;
42244;SDS011;27912;51.828;5.688;2023-11-19T02:03:47;24.98;;;2.83;;
42244;SDS011;27912;51.828;5.688;2023-11-19T02:06:12;20.00;;;2.40;;
42244;SDS011;27912;51.828;5.688;2023-11-19T02:08:38;21.00;;;3.03;;
42244;SDS011;27912;51.828;5.688;2023-11-19T02:11:04;24.48;;;3.55;;
42244;SDS011;27912;51.828;5.688;2023-11-19T02:13:31;17.98;;;2.72;;
42244;SDS011;27912;51.828;5.688;2023-11-19T02:15:57;19.38;;;2.53;;
42244;SDS011;27912;51.828;5.688;2023-11-19T02:18:25;18.10;;;3.03;;
42244;SDS011;27912;51.828;5.688;2023-11-19T02:20:55;16.77;;;2.67;;
42244;SDS011;27912;51.828;5.688;2023-11-19T02:23:25;24.65;;;3.00;;
42244;SDS011;27912;51.828;5.688;2023-11-19T02:26:03;27.08;;;2.85;;
42244;SDS011;27912;51.828;5.688;2023-11-19T02:28:38;24.73;;;3.60;;
42244;SDS011;27912;51.828;5.688;2023-11-19T02:31:05;27.17;;;2.67;;
42244;SDS011;27912;51.828;5.688;2023-11-19T02:33:34;19.77;;;2.70;;
42244;SDS011;27912;51.828;5.688;2023-11-19T02:36:06;24.15;;;3.33;;
42244;SDS011;27912;51.828;5.688;2023-11-19T02:38:35;23.92;;;2.50;;
42244;SDS011;27912;51.828;5.688;2023-11-19T02:41:04;24.17;;;3.13;;
42244;SDS011;27912;51.828;5.688;2023-11-19T02:43:31;25.80;;;2.70;;
42244;SDS011;27912;51.828;5.688;2023-11-19T02:45:58;25.08;;;2.85;;
42244;SDS011;27912;51.828;5.688;2023-11-19T02:48:34;24.70;;;3.53;;
42244;SDS011;27912;51.828;5.688;2023-11-19T02:51:03;26.70;;;3.17;;
42244;SDS011;27912;51.828;5.688;2023-11-19T02:53:29;29.38;;;2.70;;
42244;SDS011;27912;51.828;5.688;2023-11-19T02:55:55;21.98;;;2.53;;
42244;SDS011;27912;51.828;5.688;2023-11-19T02:58:27;30.45;;;3.75;;
42244;SDS011;27912;51.828;5.688;2023-11-19T03:00:53;22.42;;;2.58;;
42244;SDS011;27912;51.828;5.688;2023-11-19T03:03:23;28.25;;;3.38;;
42244;SDS011;27912;51.828;5.688;2023-11-19T03:05:53;32.15;;;4.18;;
42244;SDS011;27912;51.828;5.688;2023-11-19T03:08:20;30.10;;;3.90;;
42244;SDS011;27912;51.828;5.688;2023-11-19T03:10:45;36.33;;;4.30;;
42244;SDS011;27912;51.828;5.688;2023-11-19T03:13:12;31.67;;;3.92;;
42244;SDS011;27912;51.828;5.688;2023-11-19T03:15:42;31.75;;;4.43;;
42244;SDS011;27912;51.828;5.688;2023-11-19T03:18:08;30.95;;;3.50;;
42244;SDS011;27912;51.828;5.688;2023-11-19T03:20:33;27.23;;;3.20;;
42244;SDS011;27912;51.828;5.688;2023-11-19T03:22:59;30.38;;;3.65;;
42244;SDS011;27912;51.828;5.688;2023-11-19T03:25:26;32.30;;;4.75;;
42244;SDS011;27912;51.828;5.688;2023-11-19T03:27:58;31.00;;;4.13;;
42244;SDS011;27912;51.828;5.688;2023-11-19T03:30:24;34.42;;;4.13;;
42244;SDS011;27912;51.828;5.688;2023-11-19T03:32:50;34.25;;;4.05;;
42244;SDS011;27912;51.828;5.688;2023-11-19T03:35:15;23.90;;;2.83;;
42244;SDS011;27912;51.828;5.688;2023-11-19T03:37:41;28.27;;;3.72;;
42244;SDS011;27912;51.828;5.688;2023-11-19T03:40:08;30.92;;;4.63;;
42244;SDS011;27912;51.828;5.688;2023-11-19T03:42:35;27.77;;;3.30;;
42244;SDS011;27912;51.828;5.688;2023-11-19T03:45:01;27.92;;;3.67;;
42244;SDS011;27912;51.828;5.688;2023-11-19T03:47:29;28.38;;;4.03;;
42244;SDS011;27912;51.828;5.688;2023-11-19T03:49:54;23.13;;;3.25;;
42244;SDS011;27912;51.828;5.688;2023-11-19T03:52:20;37.03;;;4.50;;
42244;SDS011;27912;51.828;5.688;2023-11-19T03:54:46;33.97;;;3.58;;
42244;SDS011;27912;51.828;5.688;2023-11-19T03:57:12;34.17;;;4.03;;
42244;SDS011;27912;51.828;5.688;2023-11-19T03:59:38;30.25;;;2.85;;
42244;SDS011;27912;51.828;5.688;2023-11-19T04:02:04;28.23;;;3.75;;
42244;SDS011;27912;51.828;5.688;2023-11-19T04:04:30;30.05;;;3.67;;
42244;SDS011;27912;51.828;5.688;2023-11-19T04:06:55;28.40;;;3.40;;
42244;SDS011;27912;51.828;5.688;2023-11-19T04:09:21;28.95;;;3.22;;
42244;SDS011;27912;51.828;5.688;2023-11-19T04:11:47;43.13;;;4.53;;
42244;SDS011;27912;51.828;5.688;2023-11-19T04:14:13;30.05;;;3.08;;
42244;SDS011;27912;51.828;5.688;2023-11-19T04:16:39;29.45;;;4.28;;
42244;SDS011;27912;51.828;5.688;2023-11-19T04:19:05;27.08;;;3.45;;
42244;SDS011;27912;51.828;5.688;2023-11-19T04:21:31;32.72;;;3.33;;
42244;SDS011;27912;51.828;5.688;2023-11-19T04:23:57;24.23;;;2.35;;
42244;SDS011;27912;51.828;5.688;2023-11-19T04:26:23;30.23;;;3.35;;
42244;SDS011;27912;51.828;5.688;2023-11-19T04:28:48;34.13;;;4.20;;
42244;SDS011;27912;51.828;5.688;2023-11-19T04:31:14;26.50;;;3.22;;
42244;SDS011;27912;51.828;5.688;2023-11-19T04:33:41;25.92;;;3.65;;
42244;SDS011;27912;51.828;5.688;2023-11-19T04:36:07;31.80;;;3.28;;
42244;SDS011;27912;51.828;5.688;2023-11-19T04:38:33;27.88;;;3.30;;
42244;SDS011;27912;51.828;5.688;2023-11-19T04:40:59;29.52;;;3.75;;
42244;SDS011;27912;51.828;5.688;2023-11-19T04:43:25;34.08;;;3.55;;
42244;SDS011;27912;51.828;5.688;2023-11-19T04:45:50;32.95;;;3.72;;
42244;SDS011;27912;51.828;5.688;2023-11-19T04:48:16;26.05;;;3.42;;
42244;SDS011;27912;51.828;5.688;2023-11-19T04:50:41;34.80;;;3.83;;
42244;SDS011;27912;51.828;5.688;2023-11-19T04:53:07;28.55;;;3.35;;
42244;SDS011;27912;51.828;5.688;2023-11-19T04:55:32;30.73;;;3.65;;
42244;SDS011;27912;51.828;5.688;2023-11-19T04:57:58;36.08;;;4.28;;
42244;SDS011;27912;51.828;5.688;2023-11-19T05:00:24;30.67;;;3.10;;
42244;SDS011;27912;51.828;5.688;2023-11-19T05:02:50;35.10;;;4.07;;
42244;SDS011;27912;51.828;5.688;2023-11-19T05:05:16;41.45;;;4.93;;
42244;SDS011;27912;51.828;5.688;2023-11-19T05:07:42;34.97;;;3.42;;
42244;SDS011;27912;51.828;5.688;2023-11-19T05:10:08;28.48;;;3.20;;
42244;SDS011;27912;51.828;5.688;2023-11-19T05:12:34;50.33;;;4.78;;
42244;SDS011;27912;51.828;5.688;2023-11-19T05:14:59;29.88;;;3.97;;
42244;SDS011;27912;51.828;5.688;2023-11-19T05:17:25;32.50;;;4.55;;
42244;SDS011;27912;51.828;5.688;2023-11-19T05:19:51;38.85;;;3.53;;
42244;SDS011;27912;51.828;5.688;2023-11-19T05:22:17;35.85;;;4.10;;
42244;SDS011;27912;51.828;5.688;2023-11-19T05:24:42;33.20;;;3.72;;
42244;SDS011;27912;51.828;5.688;2023-11-19T05:27:08;39.00;;;4.47;;
42244;SDS011;27912;51.828;5.688;2023-11-19T05:29:36;26.63;;;4.07;;
42244;SDS011;27912;51.828;5.688;2023-11-19T05:32:04;41.90;;;4.47;;
42244;SDS011;27912;51.828;5.688;2023-11-19T05:34:30;29.00;;;3.47;;
42244;SDS011;27912;51.828;5.688;2023-11-19T05:36:55;27.92;;;4.60;;
42244;SDS011;27912;51.828;5.688;2023-11-19T05:39:22;34.60;;;3.97;;
42244;SDS011;27912;51.828;5.688;2023-11-19T05:41:47;34.80;;;3.45;;
42244;SDS011;27912;51.828;5.688;2023-11-19T05:44:13;32.42;;;3.50;;
42244;SDS011;27912;51.828;5.688;2023-11-19T05:46:39;21.33;;;3.38;;
42244;SDS011;27912;51.828;5.688;2023-11-19T05:49:07;41.63;;;5.20;;
42244;SDS011;27912;51.828;5.688;2023-11-19T05:51:36;34.72;;;4.00;;
42244;SDS011;27912;51.828;5.688;2023-11-19T05:54:06;27.67;;;3.50;;
42244;SDS011;27912;51.828;5.688;2023-11-19T05:56:35;35.35;;;3.83;;
42244;SDS011;27912;51.828;5.688;2023-11-19T05:59:01;36.53;;;4.43;;
42244;SDS011;27912;51.828;5.688;2023-11-19T06:01:31;33.63;;;3.92;;
42244;SDS011;27912;51.828;5.688;2023-11-19T06:03:59;34.95;;;4.20;;
42244;SDS011;27912;51.828;5.688;2023-11-19T06:06:25;33.28;;;4.15;;
42244;SDS011;27912;51.828;5.688;2023-11-19T06:08:51;28.95;;;4.10;;
42244;SDS011;27912;51.828;5.688;2023-11-19T06:11:17;43.95;;;4.47;;
42244;SDS011;27912;51.828;5.688;2023-11-19T06:13:43;35.85;;;3.90;;
42244;SDS011;27912;51.828;5.688;2023-11-19T06:16:09;50.92;;;6.93;;
42244;SDS011;27912;51.828;5.688;2023-11-19T06:18:36;37.95;;;5.30;;
42244;SDS011;27912;51.828;5.688;2023-11-19T06:21:02;42.30;;;4.70;;
42244;SDS011;27912;51.828;5.688;2023-11-19T06:23:27;35.92;;;3.35;;
42244;SDS011;27912;51.828;5.688;2023-11-19T06:25:53;40.08;;;4.47;;
42244;SDS011;27912;51.828;5.688;2023-11-19T06:28:18;36.58;;;4.07;;
42244;SDS011;27912;51.828;5.688;2023-11-19T06:30:44;32.05;;;3.53;;
42244;SDS011;27912;51.828;5.688;2023-11-19T06:33:12;33.15;;;4.25;;
42244;SDS011;27912;51.828;5.688;2023-11-19T06:35:38;41.10;;;4.38;;
42244;SDS011;27912;51.828;5.688;2023-11-19T06:38:04;35.85;;;4.20;;
42244;SDS011;27912;51.828;5.688;2023-11-19T06:40:30;42.45;;;4.55;;
42244;SDS011;27912;51.828;5.688;2023-11-19T06:42:56;37.53;;;3.53;;
42244;SDS011;27912;51.828;5.688;2023-11-19T06:45:22;48.58;;;4.28;;
42244;SDS011;27912;51.828;5.688;2023-11-19T06:47:47;36.20;;;4.20;;
42244;SDS011;27912;51.828;5.688;2023-11-19T06:50:13;28.80;;;4.60;;
42244;SDS011;27912;51.828;5.688;2023-11-19T06:52:39;35.28;;;4.10;;
42244;SDS011;27912;51.828;5.688;2023-11-19T06:55:05;42.40;;;4.15;;
42244;SDS011;27912;51.828;5.688;2023-11-19T06:57:31;43.75;;;4.93;;
42244;SDS011;27912;51.828;5.688;2023-11-19T06:59:57;43.17;;;4.68;;
42244;SDS011;27912;51.828;5.688;2023-11-19T07:02:23;33.83;;;3.90;;
42244;SDS011;27912;51.828;5.688;2023-11-19T07:04:49;44.53;;;4.38;;
42244;SDS011;27912;51.828;5.688;2023-11-19T07:07:15;36.28;;;3.85;;
42244;SDS011;27912;51.828;5.688;2023-11-19T07:09:41;41.53;;;4.93;;
42244;SDS011;27912;51.828;5.688;2023-11-19T07:12:06;32.90;;;3.63;;
42244;SDS011;27912;51.828;5.688;2023-11-19T07:14:32;38.45;;;3.95;;
42244;SDS011;27912;51.828;5.688;2023-11-19T07:16:57;38.60;;;4.05;;
42244;SDS011;27912;51.828;5.688;2023-11-19T07:19:23;36.88;;;4.13;;
42244;SDS011;27912;51.828;5.688;2023-11-19T07:21:48;46.80;;;4.72;;
42244;SDS011;27912;51.828;5.688;2023-11-19T07:24:14;31.90;;;4.45;;
42244;SDS011;27912;51.828;5.688;2023-11-19T07:26:43;37.72;;;4.53;;
42244;SDS011;27912;51.828;5.688;2023-11-19T07:29:09;44.45;;;5.43;;
42244;SDS011;27912;51.828;5.688;2023-11-19T07:31:35;42.83;;;4.60;;
42244;SDS011;27912;51.828;5.688;2023-11-19T07:34:01;31.77;;;3.00;;
42244;SDS011;27912;51.828;5.688;2023-11-19T07:36:26;38.70;;;4.78;;
42244;SDS011;27912;51.828;5.688;2023-11-19T07:38:52;40.83;;;3.75;;
42244;SDS011;27912;51.828;5.688;2023-11-19T07:41:18;33.90;;;4.50;;
42244;SDS011;27912;51.828;5.688;2023-11-19T07:43:44;35.15;;;5.05;;
42244;SDS011;27912;51.828;5.688;2023-11-19T07:46:11;32.28;;;4.35;;
42244;SDS011;27912;51.828;5.688;2023-11-19T07:48:38;38.40;;;4.88;;
42244;SDS011;27912;51.828;5.688;2023-11-19T07:51:04;34.08;;;3.35;;
42244;SDS011;27912;51.828;5.688;2023-11-19T07:53:29;37.45;;;3.67;;
42244;SDS011;27912;51.828;5.688;2023-11-19T07:55:55;25.92;;;3.13;;
42244;SDS011;27912;51.828;5.688;2023-11-19T07:58:20;27.70;;;3.58;;
42244;SDS011;27912;51.828;5.688;2023-11-19T08:00:46;30.45;;;4.15;;
42244;SDS011;27912;51.828;5.688;2023-11-19T08:03:11;32.50;;;4.00;;
42244;SDS011;27912;51.828;5.688;2023-11-19T08:05:37;35.15;;;4.25;;
42244;SDS011;27912;51.828;5.688;2023-11-19T08:08:02;24.75;;;2.85;;
42244;SDS011;27912;51.828;5.688;2023-11-19T08:10:28;43.72;;;4.90;;
42244;SDS011;27912;51.828;5.688;2023-11-19T08:12:54;34.65;;;4.22;;
42244;SDS011;27912;51.828;5.688;2023-11-19T08:15:20;35.15;;;4.65;;
42244;SDS011;27912;51.828;5.688;2023-11-19T08:17:45;31.52;;;3.60;;
42244;SDS011;27912;51.828;5.688;2023-11-19T08:20:12;32.28;;;3.70;;
42244;SDS011;27912;51.828;5.688;2023-11-19T08:22:38;29.80;;;3.33;;
42244;SDS011;27912;51.828;5.688;2023-11-19T08:25:06;31.52;;;3.58;;
42244;SDS011;27912;51.828;5.688;2023-11-19T08:27:33;39.97;;;4.72;;
42244;SDS011;27912;51.828;5.688;2023-11-19T08:29:59;31.85;;;3.80;;
42244;SDS011;27912;51.828;5.688;2023-11-19T08:32:25;35.60;;;3.58;;
42244;SDS011;27912;51.828;5.688;2023-11-19T08:34:51;34.72;;;4.13;;
42244;SDS011;27912;51.828;5.688;2023-11-19T08:37:17;28.50;;;3.80;;
42244;SDS011;27912;51.828;5.688;2023-11-19T08:39:48;35.95;;;3.92;;
42244;SDS011;27912;51.828;5.688;2023-11-19T08:42:15;32.88;;;3.22;;
42244;SDS011;27912;51.828;5.688;2023-11-19T08:44:41;35.78;;;4.65;;
42244;SDS011;27912;51.828;5.688;2023-11-19T08:47:12;38.85;;;4.00;;
42244;SDS011;27912;51.828;5.688;2023-11-19T08:49:38;32.50;;;3.80;;
42244;SDS011;27912;51.828;5.688;2023-11-19T08:52:04;38.78;;;5.10;;
42244;SDS011;27912;51.828;5.688;2023-11-19T08:54:32;29.90;;;5.82;;
42244;SDS011;27912;51.828;5.688;2023-11-19T08:56:58;40.80;;;4.10;;
42244;SDS011;27912;51.828;5.688;2023-11-19T08:59:24;28.88;;;3.63;;
42244;SDS011;27912;51.828;5.688;2023-11-19T09:01:50;33.35;;;3.35;;
42244;SDS011;27912;51.828;5.688;2023-11-19T09:04:15;32.33;;;3.95;;
42244;SDS011;27912;51.828;5.688;2023-11-19T09:06:41;30.65;;;3.47;;
42244;SDS011;27912;51.828;5.688;2023-11-19T09:09:07;27.27;;;3.72;;
42244;SDS011;27912;51.828;5.688;2023-11-19T09:11:33;30.45;;;3.63;;
42244;SDS011;27912;51.828;5.688;2023-11-19T09:13:59;32.10;;;3.67;;
42244;SDS011;27912;51.828;5.688;2023-11-19T09:16:24;27.63;;;3.53;;
42244;SDS011;27912;51.828;5.688;2023-11-19T09:18:50;31.02;;;3.80;;
42244;SDS011;27912;51.828;5.688;2023-11-19T09:21:16;29.92;;;3.50;;
42244;SDS011;27912;51.828;5.688;2023-11-19T09:23:41;36.60;;;4.15;;
42244;SDS011;27912;51.828;5.688;2023-11-19T09:26:08;42.45;;;3.60;;
42244;SDS011;27912;51.828;5.688;2023-11-19T09:28:37;33.90;;;3.72;;
42244;SDS011;27912;51.828;5.688;2023-11-19T09:31:02;34.35;;;4.10;;
42244;SDS011;27912;51.828;5.688;2023-11-19T09:33:31;39.08;;;4.03;;
42244;SDS011;27912;51.828;5.688;2023-11-19T09:35:56;34.80;;;4.50;;
42244;SDS011;27912;51.828;5.688;2023-11-19T09:38:22;29.90;;;3.30;;
42244;SDS011;27912;51.828;5.688;2023-11-19T09:40:48;31.70;;;3.03;;
42244;SDS011;27912;51.828;5.688;2023-11-19T09:43:14;27.52;;;2.97;;
42244;SDS011;27912;51.828;5.688;2023-11-19T09:45:49;33.08;;;4.15;;
42244;SDS011;27912;51.828;5.688;2023-11-19T09:48:18;33.45;;;3.20;;
42244;SDS011;27912;51.828;5.688;2023-11-19T09:50:45;31.45;;;4.10;;
42244;SDS011;27912;51.828;5.688;2023-11-19T09:53:12;31.08;;;3.75;;
42244;SDS011;27912;51.828;5.688;2023-11-19T09:55:38;24.95;;;3.25;;
42244;SDS011;27912;51.828;5.688;2023-11-19T09:58:04;26.30;;;3.90;;
42244;SDS011;27912;51.828;5.688;2023-11-19T10:00:31;30.65;;;3.63;;
42244;SDS011;27912;51.828;5.688;2023-11-19T10:02:57;26.60;;;3.90;;
42244;SDS011;27912;51.828;5.688;2023-11-19T10:05:24;22.88;;;3.90;;
42244;SDS011;27912;51.828;5.688;2023-11-19T10:07:51;25.63;;;3.13;;
42244;SDS011;27912;51.828;5.688;2023-11-19T10:10:17;35.10;;;4.35;;
42244;SDS011;27912;51.828;5.688;2023-11-19T10:12:47;33.30;;;4.03;;
42244;SDS011;27912;51.828;5.688;2023-11-19T10:15:23;33.70;;;4.57;;
42244;SDS011;27912;51.828;5.688;2023-11-19T10:17:56;34.00;;;4.38;;
42244;SDS011;27912;51.828;5.688;2023-11-19T10:20:23;24.27;;;4.30;;
42244;SDS011;27912;51.828;5.688;2023-11-19T10:22:51;36.70;;;4.72;;
42244;SDS011;27912;51.828;5.688;2023-11-19T10:25:24;34.78;;;4.05;;
42244;SDS011;27912;51.828;5.688;2023-11-19T10:27:54;26.40;;;2.63;;
42244;SDS011;27912;51.828;5.688;2023-11-19T10:30:27;24.20;;;3.80;;
42244;SDS011;27912;51.828;5.688;2023-11-19T10:35:34;31.30;;;4.30;;
42244;SDS011;27912;51.828;5.688;2023-11-19T10:38:01;25.08;;;2.72;;
42244;SDS011;27912;51.828;5.688;2023-11-19T10:40:40;30.98;;;3.65;;
42244;SDS011;27912;51.828;5.688;2023-11-19T10:43:05;26.67;;;3.15;;
42244;SDS011;27912;51.828;5.688;2023-11-19T10:45:32;29.48;;;3.30;;
42244;SDS011;27912;51.828;5.688;2023-11-19T10:48:03;21.77;;;2.47;;
42244;SDS011;27912;51.828;5.688;2023-11-19T10:50:35;22.88;;;2.58;;
42244;SDS011;27912;51.828;5.688;2023-11-19T10:53:01;32.10;;;3.50;;
42244;SDS011;27912;51.828;5.688;2023-11-19T10:55:32;29.65;;;3.10;;
42244;SDS011;27912;51.828;5.688;2023-11-19T10:58:01;26.52;;;3.20;;
42244;SDS011;27912;51.828;5.688;2023-11-19T11:00:37;27.58;;;3.97;;
42244;SDS011;27912;51.828;5.688;2023-11-19T11:03:15;34.65;;;3.47;;
42244;SDS011;27912;51.828;5.688;2023-11-19T11:05:51;26.63;;;3.75;;
42244;SDS011;27912;51.828;5.688;2023-11-19T11:08:18;28.05;;;3.83;;
42244;SDS011;27912;51.828;5.688;2023-11-19T11:10:52;21.80;;;2.83;;
42244;SDS011;27912;51.828;5.688;2023-11-19T11:13:19;27.88;;;3.83;;
42244;SDS011;27912;51.828;5.688;2023-11-19T11:15:48;26.77;;;3.05;;
42244;SDS011;27912;51.828;5.688;2023-11-19T11:18:14;26.55;;;2.80;;
42244;SDS011;27912;51.828;5.688;2023-11-19T11:20:40;31.75;;;3.63;;
42244;SDS011;27912;51.828;5.688;2023-11-19T11:29:11;25.85;;;3.03;;
42244;SDS011;27912;51.828;5.688;2023-11-19T11:32:04;35.08;;;4.15;;
42244;SDS011;27912;51.828;5.688;2023-11-19T11:37:49;28.50;;;3.38;;
42244;SDS011;27912;51.828;5.688;2023-11-19T11:40:21;28.52;;;3.35;;
42244;SDS011;27912;51.828;5.688;2023-11-19T11:42:48;28.50;;;3.70;;
42244;SDS011;27912;51.828;5.688;2023-11-19T11:45:16;23.45;;;3.08;;
42244;SDS011;27912;51.828;5.688;2023-11-19T11:50:29;26.33;;;2.88;;
42244;SDS011;27912;51.828;5.688;2023-11-19T11:55:23;31.00;;;4.60;;
42244;SDS011;27912;51.828;5.688;2023-11-19T11:57:50;25.27;;;3.15;;
42244;SDS011;27912;51.828;5.688;2023-11-19T12:00:51;32.35;;;3.92;;
42244;SDS011;27912;51.828;5.688;2023-11-19T12:05:44;24.30;;;2.53;;
42244;SDS011;27912;51.828;5.688;2023-11-19T12:08:11;23.55;;;2.90;;
42244;SDS011;27912;51.828;5.688;2023-11-19T12:10:46;24.67;;;2.45;;
42244;SDS011;27912;51.828;5.688;2023-11-19T12:13:13;18.80;;;2.15;;
42244;SDS011;27912;51.828;5.688;2023-11-19T12:18:23;23.73;;;2.60;;
42244;SDS011;27912;51.828;5.688;2023-11-19T12:20:53;19.35;;;2.75;;
42244;SDS011;27912;51.828;5.688;2023-11-19T12:23:19;20.02;;;2.22;;
42244;SDS011;27912;51.828;5.688;2023-11-19T12:25:45;17.30;;;2.00;;
42244;SDS011;27912;51.828;5.688;2023-11-19T12:28:16;21.23;;;2.95;;
42244;SDS011;27912;51.828;5.688;2023-11-19T12:30:42;17.80;;;2.03;;
42244;SDS011;27912;51.828;5.688;2023-11-19T12:33:09;17.55;;;1.77;;
42244;SDS011;27912;51.828;5.688;2023-11-19T12:35:41;16.73;;;1.45;;
42244;SDS011;27912;51.828;5.688;2023-11-19T12:38:08;17.52;;;2.40;;
42244;SDS011;27912;51.828;5.688;2023-11-19T12:40:47;21.20;;;2.50;;
42244;SDS011;27912;51.828;5.688;2023-11-19T12:43:26;22.05;;;2.58;;
42244;SDS011;27912;51.828;5.688;2023-11-19T12:45:52;24.67;;;1.98;;
42244;SDS011;27912;51.828;5.688;2023-11-19T12:48:17;27.73;;;3.22;;
42244;SDS011;27912;51.828;5.688;2023-11-19T12:50:56;24.90;;;2.00;;
42244;SDS011;27912;51.828;5.688;2023-11-19T12:53:23;20.65;;;2.33;;
42244;SDS011;27912;51.828;5.688;2023-11-19T12:55:50;23.17;;;2.60;;
42244;SDS011;27912;51.828;5.688;2023-11-19T12:58:38;22.17;;;3.38;;
42244;SDS011;27912;51.828;5.688;2023-11-19T13:01:04;25.80;;;2.50;;
42244;SDS011;27912;51.828;5.688;2023-11-19T13:03:34;24.52;;;2.55;;
42244;SDS011;27912;51.828;5.688;2023-11-19T13:06:07;22.13;;;3.10;;
42244;SDS011;27912;51.828;5.688;2023-11-19T13:11:05;19.77;;;2.42;;
42244;SDS011;27912;51.828;5.688;2023-11-19T13:13:32;22.70;;;2.50;;
42244;SDS011;27912;51.828;5.688;2023-11-19T13:16:15;23.10;;;3.72;;
42244;SDS011;27912;51.828;5.688;2023-11-19T13:18:40;24.35;;;2.75;;
42244;SDS011;27912;51.828;5.688;2023-11-19T13:21:06;22.73;;;2.92;;
42244;SDS011;27912;51.828;5.688;2023-11-19T13:23:31;25.83;;;3.40;;
42244;SDS011;27912;51.828;5.688;2023-11-19T13:25:57;21.08;;;2.45;;
42244;SDS011;27912;51.828;5.688;2023-11-19T13:28:22;22.70;;;2.30;;
42244;SDS011;27912;51.828;5.688;2023-11-19T13:30:48;20.98;;;2.95;;
42244;SDS011;27912;51.828;5.688;2023-11-19T13:33:15;23.05;;;3.38;;
42244;SDS011;27912;51.828;5.688;2023-11-19T13:35:40;24.60;;;2.90;;
42244;SDS011;27912;51.828;5.688;2023-11-19T13:38:06;22.60;;;3.40;;
42244;SDS011;27912;51.828;5.688;2023-11-19T13:40:33;20.80;;;3.10;;
42244;SDS011;27912;51.828;5.688;2023-11-19T13:42:59;26.50;;;3.00;;
42244;SDS011;27912;51.828;5.688;2023-11-19T13:45:25;18.83;;;2.60;;
42244;SDS011;27912;51.828;5.688;2023-11-19T13:47:50;21.00;;;2.78;;
42244;SDS011;27912;51.828;5.688;2023-11-19T13:50:16;25.40;;;3.60;;
42244;SDS011;27912;51.828;5.688;2023-11-19T13:52:42;20.83;;;2.55;;
42244;SDS011;27912;51.828;5.688;2023-11-19T13:55:11;24.20;;;2.88;;
42244;SDS011;27912;51.828;5.688;2023-11-19T13:57:37;24.83;;;3.13;;
42244;SDS011;27912;51.828;5.688;2023-11-19T14:00:04;21.38;;;2.83;;
42244;SDS011;27912;51.828;5.688;2023-11-19T14:02:32;26.35;;;3.10;;
42244;SDS011;27912;51.828;5.688;2023-11-19T14:04:58;25.92;;;2.22;;
42244;SDS011;27912;51.828;5.688;2023-11-19T14:07:24;18.92;;;2.20;;
42244;SDS011;27912;51.828;5.688;2023-11-19T14:09:49;25.23;;;3.17;;
42244;SDS011;27912;51.828;5.688;2023-11-19T14:12:16;17.77;;;2.30;;
42244;SDS011;27912;51.828;5.688;2023-11-19T14:14:42;18.67;;;3.10;;
42244;SDS011;27912;51.828;5.688;2023-11-19T14:17:08;20.83;;;1.75;;
42244;SDS011;27912;51.828;5.688;2023-11-19T14:19:34;24.00;;;2.10;;
42244;SDS011;27912;51.828;5.688;2023-11-19T14:21:59;25.13;;;2.42;;
42244;SDS011;27912;51.828;5.688;2023-11-19T14:24:25;26.33;;;2.90;;
42244;SDS011;27912;51.828;5.688;2023-11-19T14:26:51;20.02;;;2.13;;
42244;SDS011;27912;51.828;5.688;2023-11-19T14:29:16;19.50;;;1.70;;
42244;SDS011;27912;51.828;5.688;2023-11-19T14:31:42;23.42;;;3.47;;
42244;SDS011;27912;51.828;5.688;2023-11-19T14:34:08;27.30;;;3.08;;
42244;SDS011;27912;51.828;5.688;2023-11-19T14:36:33;19.35;;;2.28;;
42244;SDS011;27912;51.828;5.688;2023-11-19T14:38:59;20.58;;;1.80;;
42244;SDS011;27912;51.828;5.688;2023-11-19T14:41:25;24.25;;;2.13;;
42244;SDS011;27912;51.828;5.688;2023-11-19T14:43:51;22.83;;;2.33;;
42244;SDS011;27912;51.828;5.688;2023-11-19T14:46:16;15.35;;;2.03;;
42244;SDS011;27912;51.828;5.688;2023-11-19T14:48:42;14.20;;;1.38;;
42244;SDS011;27912;51.828;5.688;2023-11-19T14:51:07;21.00;;;1.60;;
42244;SDS011;27912;51.828;5.688;2023-11-19T14:53:33;22.02;;;2.00;;
42244;SDS011;27912;51.828;5.688;2023-11-19T14:55:59;16.88;;;2.03;;
42244;SDS011;27912;51.828;5.688;2023-11-19T14:58:25;14.05;;;1.30;;